Time;durP1;ratioP1;P1;durP2;ratioP2;P2;SDS_P1;SDS_P2;PMS_P1;PMS_P2;Temp;Humidity;BMP_temperature;BMP_pressure;BME280_temperature;BME280_humidity;BME280_pressure;Samples;Min_cycle;Max_cycle;Signal;HPM_P1;HPM_P2
2023/03/08 00:00:58;;;;;;;3.88;3.38;;;2.00;65.30;;;;;;5094669;28;20032;-82
2023/03/08 00:03:24;;;;;;;4.00;3.30;;;2.00;65.60;;;;;;5093811;28;20043;-84
2023/03/08 00:05:50;;;;;;;4.72;3.38;;;2.10;65.00;;;;;;5092446;28;20379;-76
2023/03/08 00:08:16;;;;;;;3.58;3.25;;;2.10;64.80;;;;;;5092279;28;20103;-79
2023/03/08 00:10:42;;;;;;;4.28;3.15;;;2.10;64.90;;;;;;5112424;28;20031;-78
2023/03/08 00:13:08;;;;;;;2.67;2.42;;;2.00;64.90;;;;;;5112471;28;20061;-81
2023/03/08 00:15:36;;;;;;;2.65;2.45;;;2.00;64.90;;;;;;5077064;28;20528;-81
2023/03/08 00:18:03;;;;;;;4.03;3.08;;;2.00;65.00;;;;;;5112047;28;20031;-77
2023/03/08 00:20:29;;;;;;;4.28;3.08;;;2.00;65.30;;;;;;5112857;28;20441;-77
2023/03/08 00:22:55;;;;;;;4.32;2.90;;;1.90;65.50;;;;;;5112904;28;20042;-80
2023/03/08 00:25:20;;;;;;;3.20;2.85;;;1.90;65.50;;;;;;5113162;28;20036;-77
2023/03/08 00:27:46;;;;;;;4.80;4.13;;;1.80;66.30;;;;;;5095211;28;20028;-80
2023/03/08 00:30:13;;;;;;;3.58;2.70;;;1.90;65.60;;;;;;5112984;28;20035;-78
2023/03/08 00:32:38;;;;;;;12.13;8.43;;;2.00;65.30;;;;;;5113010;28;20481;-80
2023/03/08 00:35:04;;;;;;;5.78;3.17;;;1.90;65.50;;;;;;5094715;28;20028;-78
2023/03/08 00:37:30;;;;;;;4.40;4.00;;;1.90;65.90;;;;;;5112631;28;20062;-79
2023/03/08 00:39:55;;;;;;;3.40;2.60;;;1.80;65.70;;;;;;5114352;27;20034;-77
2023/03/08 00:42:21;;;;;;;4.30;4.00;;;1.80;65.90;;;;;;5078876;28;20393;-77
2023/03/08 00:44:47;;;;;;;3.10;2.80;;;1.80;66.10;;;;;;5095243;28;20040;-81
2023/03/08 00:47:13;;;;;;;3.22;2.92;;;1.70;66.40;;;;;;5092536;28;20036;-78
2023/03/08 00:49:39;;;;;;;4.90;3.38;;;1.60;66.60;;;;;;5112750;28;20459;-77
2023/03/08 00:52:05;;;;;;;4.00;3.03;;;1.70;66.50;;;;;;5109571;28;20019;-78
2023/03/08 00:54:31;;;;;;;5.45;2.95;;;1.60;66.80;;;;;;5094471;28;20557;-79
2023/03/08 00:56:57;;;;;;;3.92;3.20;;;1.60;66.90;;;;;;5112657;28;20030;-80
2023/03/08 00:59:23;;;;;;;8.43;2.95;;;1.60;66.90;;;;;;5094532;28;20118;-80
2023/03/08 01:01:48;;;;;;;6.43;3.72;;;1.60;67.20;;;;;;5112919;28;20028;-79
2023/03/08 01:04:14;;;;;;;4.55;3.65;;;1.50;67.60;;;;;;5090348;28;20561;-80
2023/03/08 01:06:42;;;;;;;4.22;3.30;;;1.50;67.50;;;;;;5094275;28;20078;-78
2023/03/08 01:09:08;;;;;;;6.32;3.78;;;1.40;68.00;;;;;;5094844;28;20401;-79
2023/03/08 01:11:35;;;;;;;7.00;3.97;;;1.40;68.00;;;;;;5094630;28;20434;-78
2023/03/08 01:14:01;;;;;;;3.72;3.30;;;1.50;67.70;;;;;;5112948;28;20059;-80
2023/03/08 01:16:30;;;;;;;7.68;5.65;;;1.50;68.90;;;;;;5112527;28;20034;-80
2023/03/08 01:18:56;;;;;;;4.63;4.20;;;1.40;68.10;;;;;;5109723;28;20028;-78
2023/03/08 01:21:22;;;;;;;2.72;2.25;;;1.40;68.50;;;;;;5091935;28;20040;-78
2023/03/08 01:23:48;;;;;;;3.25;2.95;;;1.30;69.60;;;;;;5094467;28;20405;-81
2023/03/08 01:26:31;;;;;;;4.00;3.05;;;1.30;69.90;;;;;;5113312;28;20024;-77
2023/03/08 01:28:57;;;;;;;6.35;3.95;;;1.20;70.50;;;;;;5113609;28;20032;-79
2023/03/08 01:31:29;;;;;;;5.20;3.47;;;1.30;70.60;;;;;;5091582;28;20104;-79
2023/03/08 01:33:56;;;;;;;5.38;3.65;;;1.20;70.80;;;;;;5104821;28;20114;-77
2023/03/08 01:36:24;;;;;;;9.23;8.30;;;1.20;71.20;;;;;;5110518;28;20039;-78
2023/03/08 01:38:50;;;;;;;4.65;3.65;;;1.30;71.00;;;;;;5089217;28;20036;-80
2023/03/08 01:41:25;;;;;;;3.90;3.45;;;1.30;71.20;;;;;;5103248;28;20030;-79
2023/03/08 01:43:51;;;;;;;4.55;3.90;;;1.30;71.80;;;;;;5116149;28;20062;-79
2023/03/08 01:46:27;;;;;;;5.18;3.78;;;1.20;71.70;;;;;;5111958;28;20455;-77
2023/03/08 01:49:17;;;;;;;4.32;3.90;;;1.30;71.20;;;;;;5095491;28;20037;-81
2023/03/08 01:52:05;;;;;;;4.72;3.28;;;1.30;71.50;;;;;;5099694;28;20536;-81
2023/03/08 01:54:35;;;;;;;6.50;3.83;;;1.30;71.80;;;;;;5115168;28;20167;-80
2023/03/08 01:57:12;;;;;;;7.05;3.85;;;1.20;71.50;;;;;;5084114;28;20040;-76
2023/03/08 01:59:38;;;;;;;3.42;2.97;;;1.10;71.50;;;;;;5118911;28;20031;-78
2023/03/08 02:02:05;;;;;;;4.47;3.38;;;1.10;72.00;;;;;;5081222;28;20038;-78
2023/03/08 02:04:31;;;;;;;8.40;4.68;;;1.10;72.30;;;;;;5118943;28;20489;-80
2023/03/08 02:06:56;;;;;;;5.85;3.55;;;1.10;72.70;;;;;;5098666;28;20051;-81
2023/03/08 02:09:23;;;;;;;5.35;4.40;;;1.10;72.90;;;;;;5119705;28;20095;-79
2023/03/08 02:11:49;;;;;;;4.45;3.47;;;1.00;73.30;;;;;;5114284;28;20027;-79
2023/03/08 02:14:14;;;;;;;6.15;3.80;;;0.80;73.80;;;;;;5097871;28;20030;-78
2023/03/08 02:16:40;;;;;;;5.30;4.47;;;0.90;73.70;;;;;;5104468;28;20032;-81
2023/03/08 02:19:15;;;;;;;4.97;3.92;;;0.70;73.90;;;;;;5101204;28;20509;-77
2023/03/08 02:21:41;;;;;;;4.32;3.92;;;0.60;74.10;;;;;;5118901;28;20488;-78
2023/03/08 02:24:18;;;;;;;6.18;4.65;;;0.60;74.30;;;;;;5109217;28;20178;-78
2023/03/08 02:26:44;;;;;;;6.40;4.40;;;0.60;74.80;;;;;;5090951;28;20024;-79
2023/03/08 02:29:10;;;;;;;7.40;3.95;;;0.70;75.30;;;;;;5098291;28;20516;-77
2023/03/08 02:31:36;;;;;;;31.00;28.35;;;0.70;75.40;;;;;;5098659;28;20035;-78
2023/03/08 02:34:02;;;;;;;4.25;3.83;;;0.70;75.70;;;;;;5104645;28;20581;-79
2023/03/08 02:36:29;;;;;;;6.45;4.95;;;0.70;75.80;;;;;;5098984;28;20078;-77
2023/03/08 02:38:54;;;;;;;5.95;4.40;;;0.70;76.00;;;;;;5077287;28;20041;-81
2023/03/08 02:41:20;;;;;;;5.85;3.90;;;0.80;75.60;;;;;;5099883;28;20394;-78
2023/03/08 02:43:45;;;;;;;4.55;3.88;;;0.80;75.80;;;;;;5099102;28;20131;-77
2023/03/08 02:46:12;;;;;;;6.10;5.00;;;0.80;75.60;;;;;;5080619;28;20028;-78
2023/03/08 02:48:38;;;;;;;5.25;4.22;;;0.80;75.40;;;;;;5098622;28;20028;-79
2023/03/08 02:51:04;;;;;;;5.43;4.47;;;0.80;75.60;;;;;;5082244;28;20047;-79
2023/03/08 02:53:29;;;;;;;5.72;4.28;;;0.80;76.00;;;;;;5082226;28;20028;-80
2023/03/08 02:55:55;;;;;;;11.18;4.70;;;0.80;76.10;;;;;;5061824;28;20035;-80
2023/03/08 02:58:21;;;;;;;10.38;4.95;;;0.90;76.20;;;;;;5094213;28;20032;-79
2023/03/08 03:00:46;;;;;;;7.85;5.07;;;0.90;76.00;;;;;;5079727;28;20032;-77
2023/03/08 03:03:12;;;;;;;4.63;4.18;;;0.90;76.80;;;;;;5097252;28;20032;-79
2023/03/08 03:05:42;;;;;;;5.30;4.72;;;0.80;76.60;;;;;;5096865;28;20133;-78
2023/03/08 03:08:08;;;;;;;5.18;4.53;;;0.80;76.90;;;;;;5080302;28;20027;-78
2023/03/08 03:10:35;;;;;;;5.07;4.47;;;0.90;77.00;;;;;;5075760;28;20032;-80
2023/03/08 03:13:01;;;;;;;6.45;4.80;;;0.90;77.10;;;;;;5075739;28;20028;-83
2023/03/08 03:15:27;;;;;;;6.20;5.03;;;1.00;76.90;;;;;;5105855;28;20036;-78
2023/03/08 03:17:52;;;;;;;6.43;4.57;;;1.10;76.50;;;;;;5093646;28;20068;-80
2023/03/08 03:20:22;;;;;;;5.40;4.65;;;1.00;76.90;;;;;;5060699;28;20401;-77
2023/03/08 03:22:48;;;;;;;6.07;4.73;;;1.10;76.50;;;;;;5092253;28;20024;-80
2023/03/08 03:25:13;;;;;;;8.30;4.50;;;1.20;75.90;;;;;;5103178;28;20048;-80
2023/03/08 03:27:39;;;;;;;5.40;4.50;;;1.10;75.80;;;;;;5077055;28;20032;-76
2023/03/08 03:30:06;;;;;;;7.63;4.65;;;1.10;76.50;;;;;;5080748;28;20063;-77
2023/03/08 03:32:32;;;;;;;8.85;4.65;;;1.10;76.80;;;;;;5097282;28;20122;-79
2023/03/08 03:34:58;;;;;;;6.10;4.65;;;1.10;77.10;;;;;;5085079;28;20099;-79
2023/03/08 03:37:24;;;;;;;5.93;5.30;;;1.20;76.80;;;;;;5069350;28;20452;-77
2023/03/08 03:39:49;;;;;;;6.20;5.00;;;1.20;77.20;;;;;;5067847;28;20036;-79
2023/03/08 03:42:15;;;;;;;6.50;4.80;;;1.20;77.00;;;;;;5088911;28;20055;-77
2023/03/08 03:44:41;;;;;;;8.88;5.15;;;1.20;77.20;;;;;;5091344;28;20066;-80
2023/03/08 03:47:07;;;;;;;11.75;5.10;;;1.20;77.30;;;;;;5075157;28;20028;-79
2023/03/08 03:49:32;;;;;;;6.28;4.72;;;1.20;77.60;;;;;;5074395;28;20059;-79
2023/03/08 03:51:58;;;;;;;7.18;4.93;;;1.20;77.20;;;;;;5089053;28;20024;-81
2023/03/08 03:54:24;;;;;;;7.10;6.05;;;1.20;77.20;;;;;;5074610;28;20035;-80
2023/03/08 03:56:50;;;;;;;8.90;5.65;;;1.20;77.10;;;;;;5094065;28;20075;-80
2023/03/08 03:59:16;;;;;;;6.38;4.85;;;1.20;77.50;;;;;;5087793;28;20039;-80
2023/03/08 04:01:42;;;;;;;7.38;5.47;;;1.20;77.70;;;;;;5069116;28;20029;-81
2023/03/08 04:04:09;;;;;;;7.80;5.45;;;1.20;79.60;;;;;;5089450;28;20028;-80
2023/03/08 04:06:35;;;;;;;6.65;4.80;;;1.20;78.50;;;;;;5091918;28;20126;-80
2023/03/08 04:09:04;;;;;;;7.20;5.43;;;1.20;78.70;;;;;;5070899;28;20036;-79
2023/03/08 04:11:38;;;;;;;6.60;5.30;;;1.10;78.80;;;;;;5092140;28;20028;-76
2023/03/08 04:14:04;;;;;;;6.22;5.32;;;1.00;79.00;;;;;;5083961;28;20513;-80
2023/03/08 04:16:33;;;;;;;8.82;5.15;;;1.00;79.40;;;;;;5087261;28;20039;-79
2023/03/08 04:19:11;;;;;;;6.60;5.13;;;1.00;79.70;;;;;;5071045;28;20036;-81
2023/03/08 04:21:37;;;;;;;7.07;5.53;;;0.90;79.80;;;;;;5089991;28;20024;-77
2023/03/08 04:24:03;;;;;;;5.82;4.78;;;0.90;79.90;;;;;;5083867;28;20071;-79
2023/03/08 04:26:28;;;;;;;8.15;6.07;;;1.00;79.80;;;;;;5060042;28;20398;-83
2023/03/08 04:28:54;;;;;;;6.07;5.43;;;0.90;80.00;;;;;;5071584;28;20042;-78
2023/03/08 04:31:28;;;;;;;6.22;5.13;;;0.90;80.40;;;;;;5071718;28;20433;-78
2023/03/08 04:33:54;;;;;;;8.15;5.93;;;0.90;80.60;;;;;;5089285;28;20043;-81
2023/03/08 04:36:20;;;;;;;6.03;5.43;;;0.80;80.50;;;;;;5087106;28;20032;-76
2023/03/08 04:38:46;;;;;;;10.70;5.75;;;0.80;80.80;;;;;;5086526;28;20036;-81
2023/03/08 04:41:12;;;;;;;5.85;5.28;;;0.80;80.60;;;;;;5072164;28;20023;-79
2023/03/08 04:43:50;;;;;;;6.30;4.78;;;0.80;80.10;;;;;;5089567;28;20028;-77
2023/03/08 04:46:17;;;;;;;8.38;5.53;;;0.80;80.50;;;;;;5088535;28;20108;-77
2023/03/08 04:48:43;;;;;;;7.50;5.43;;;0.90;80.50;;;;;;5069600;28;20162;-83
2023/03/08 04:51:11;;;;;;;9.13;6.15;;;0.90;80.60;;;;;;5089029;28;20047;-80
2023/03/08 04:53:38;;;;;;;6.68;5.78;;;0.90;80.80;;;;;;5071421;28;20024;-83
2023/03/08 04:56:05;;;;;;;6.55;5.07;;;1.00;80.80;;;;;;5055534;28;20052;-81
2023/03/08 04:58:31;;;;;;;9.25;5.97;;;1.10;80.70;;;;;;5071502;28;20112;-81
2023/03/08 05:00:57;;;;;;;6.63;5.32;;;1.10;80.80;;;;;;5054595;28;20480;-81
2023/03/08 05:03:23;;;;;;;7.65;5.93;;;1.00;80.90;;;;;;5071920;28;20032;-79
2023/03/08 05:05:54;;;;;;;6.57;5.25;;;1.00;80.60;;;;;;5064595;28;20760;-81
2023/03/08 05:08:20;;;;;;;;;;;1.10;81.00;;;;;;5085797;28;20039;-80
2023/03/08 05:10:56;;;;;;;6.60;5.72;;;1.10;80.90;;;;;;5086277;28;19912;-82
2023/03/08 05:13:26;;;;;;;8.73;5.65;;;1.10;81.20;;;;;;5080771;28;20036;-79
2023/03/08 05:15:52;;;;;;;7.35;5.88;;;1.10;80.90;;;;;;5082337;28;20376;-78
2023/03/08 05:18:18;;;;;;;8.23;6.40;;;1.20;80.80;;;;;;5087569;28;20041;-77
2023/03/08 05:20:44;;;;;;;8.35;6.13;;;1.20;80.80;;;;;;5068062;28;20020;-76
2023/03/08 05:23:10;;;;;;;7.63;5.82;;;1.30;80.90;;;;;;5071757;28;20035;-76
2023/03/08 05:25:44;;;;;;;9.18;5.20;;;1.20;81.00;;;;;;5089831;28;20048;-77
2023/03/08 05:28:14;;;;;;;7.03;4.80;;;1.20;80.60;;;;;;5087634;28;20582;-79
2023/03/08 05:30:40;;;;;;;7.70;6.40;;;1.20;81.10;;;;;;5088257;28;20032;-77
2023/03/08 05:33:06;;;;;;;7.18;5.57;;;1.20;81.10;;;;;;5088977;28;20023;-77
2023/03/08 05:35:32;;;;;;;6.70;5.45;;;1.20;81.30;;;;;;5088501;28;20040;-75
2023/03/08 05:37:58;;;;;;;10.45;5.72;;;1.30;81.60;;;;;;5086982;28;20035;-76
2023/03/08 05:40:23;;;;;;;9.00;5.80;;;1.30;80.90;;;;;;5082714;28;20508;-78
2023/03/08 05:42:49;;;;;;;7.60;5.90;;;1.40;81.10;;;;;;5067710;28;20032;-76
2023/03/08 05:45:15;;;;;;;6.47;5.40;;;1.40;81.20;;;;;;5067220;28;20047;-75
2023/03/08 05:47:40;;;;;;;8.50;7.43;;;1.50;81.00;;;;;;5089349;28;20042;-78
2023/03/08 05:50:07;;;;;;;8.82;5.93;;;1.60;80.90;;;;;;5088215;28;20482;-76
2023/03/08 05:52:32;;;;;;;7.38;6.10;;;1.50;80.70;;;;;;5087578;28;20056;-76
2023/03/08 05:54:58;;;;;;;8.65;6.47;;;1.50;80.30;;;;;;5068166;28;20553;-75
2023/03/08 05:57:24;;;;;;;7.05;6.18;;;1.60;80.80;;;;;;5084254;28;20154;-76
2023/03/08 05:59:49;;;;;;;9.18;6.40;;;1.60;80.70;;;;;;5064396;28;20070;-75
2023/03/08 06:02:15;;;;;;;7.72;6.13;;;1.70;80.40;;;;;;5067902;28;20489;-79
2023/03/08 06:04:41;;;;;;;10.55;6.68;;;1.70;80.20;;;;;;5089504;28;20024;-80
2023/03/08 06:07:06;;;;;;;8.02;5.90;;;1.80;80.40;;;;;;5086397;28;20032;-76
2023/03/08 06:09:32;;;;;;;6.75;5.40;;;1.80;80.30;;;;;;5084307;28;20036;-79
2023/03/08 06:11:58;;;;;;;8.35;7.05;;;1.90;79.70;;;;;;5088628;28;20115;-79
2023/03/08 06:14:24;;;;;;;9.13;6.57;;;1.90;79.70;;;;;;5085596;28;20107;-78
2023/03/08 06:16:49;;;;;;;10.85;6.35;;;1.90;79.70;;;;;;5089590;28;20056;-77
2023/03/08 06:19:15;;;;;;;7.05;5.55;;;2.00;79.40;;;;;;5088490;28;20032;-77
2023/03/08 06:21:41;;;;;;;9.40;6.15;;;2.00;79.40;;;;;;5051767;28;20059;-75
2023/03/08 06:24:06;;;;;;;8.18;5.45;;;2.00;79.50;;;;;;5077509;28;20052;-77
2023/03/08 06:26:32;;;;;;;7.95;6.15;;;2.10;79.30;;;;;;5090692;28;20623;-75
2023/03/08 06:28:57;;;;;;;8.40;7.50;;;2.10;79.10;;;;;;5090787;28;20036;-75
2023/03/08 06:31:23;;;;;;;8.45;6.07;;;2.10;79.30;;;;;;5094785;28;20058;-74
2023/03/08 06:33:49;;;;;;;8.10;5.32;;;2.20;79.10;;;;;;5111933;28;20629;-75
2023/03/08 06:36:17;;;;;;;8.23;5.80;;;2.20;78.60;;;;;;5111982;28;20053;-74
2023/03/08 06:38:43;;;;;;;8.05;6.25;;;2.20;78.70;;;;;;5111254;28;20443;-77
2023/03/08 06:41:10;;;;;;;8.90;7.50;;;2.20;78.50;;;;;;5113169;28;20043;-75
2023/03/08 06:43:36;;;;;;;8.98;5.93;;;2.30;79.00;;;;;;5107991;28;20140;-77
2023/03/08 06:46:06;;;;;;;5.85;5.13;;;2.40;78.70;;;;;;5094438;28;20484;-75
2023/03/08 06:48:36;;;;;;;8.90;7.70;;;2.40;78.40;;;;;;5088930;28;20059;-78
2023/03/08 06:51:03;;;;;;;7.20;5.23;;;2.50;78.80;;;;;;5110975;28;20038;-80
2023/03/08 06:53:28;;;;;;;6.07;5.20;;;2.50;77.70;;;;;;5111781;28;20039;-77
2023/03/08 06:55:54;;;;;;;7.70;6.78;;;2.60;77.50;;;;;;5111836;28;20040;-78
2023/03/08 06:58:20;;;;;;;7.07;5.63;;;2.60;77.90;;;;;;5093669;28;20059;-80
2023/03/08 07:00:45;;;;;;;6.88;4.65;;;2.70;77.70;;;;;;5108954;28;20032;-77
2023/03/08 07:03:11;;;;;;;12.05;6.13;;;2.90;78.00;;;;;;5093696;28;20042;-78
2023/03/08 07:05:37;;;;;;;6.53;4.88;;;3.10;77.10;;;;;;5094293;28;20031;-77
2023/03/08 07:08:04;;;;;;;9.02;6.75;;;3.20;76.70;;;;;;5111656;28;20035;-78
2023/03/08 07:10:30;;;;;;;7.82;5.20;;;3.20;76.10;;;;;;5112456;28;20057;-76
2023/03/08 07:12:55;;;;;;;6.18;4.75;;;3.40;76.50;;;;;;5111146;28;20059;-78
2023/03/08 07:15:23;;;;;;;7.93;5.70;;;3.50;75.90;;;;;;5093930;28;20626;-76
2023/03/08 07:17:51;;;;;;;8.57;5.38;;;3.60;76.10;;;;;;5112676;28;20032;-78
2023/03/08 07:20:19;;;;;;;7.28;4.82;;;3.60;76.00;;;;;;5092886;28;20024;-78
2023/03/08 07:22:45;;;;;;;7.15;5.15;;;3.70;75.90;;;;;;5111833;28;20023;-78
2023/03/08 07:25:15;;;;;;;8.45;5.60;;;3.80;76.20;;;;;;5092943;28;20073;-76
2023/03/08 07:27:41;;;;;;;14.90;13.75;;;3.80;74.70;;;;;;5091316;28;20529;-78
2023/03/08 07:30:11;;;;;;;7.15;5.57;;;3.80;74.40;;;;;;5111592;28;21464;-77
2023/03/08 07:32:39;;;;;;;5.28;4.63;;;3.80;74.70;;;;;;5111981;28;20022;-76
2023/03/08 07:35:06;;;;;;;7.32;5.50;;;3.80;75.00;;;;;;5094168;28;20053;-77
2023/03/08 07:37:32;;;;;;;6.85;4.85;;;4.00;74.70;;;;;;5108415;28;20028;-76
2023/03/08 07:39:58;;;;;;;7.57;6.85;;;4.20;74.30;;;;;;5111737;28;20031;-76
2023/03/08 07:42:26;;;;;;;7.47;4.78;;;4.20;73.30;;;;;;5090695;28;20036;-78
2023/03/08 07:44:52;;;;;;;5.57;4.65;;;4.30;73.80;;;;;;5093290;28;20119;-80
2023/03/08 07:47:17;;;;;;;7.80;5.30;;;4.30;73.50;;;;;;5093198;28;20031;-76
2023/03/08 07:49:43;;;;;;;5.90;5.38;;;4.40;73.50;;;;;;5112064;28;20040;-78
2023/03/08 07:52:09;;;;;;;6.80;4.35;;;4.30;72.70;;;;;;5111554;28;20083;-78
2023/03/08 07:54:34;;;;;;;35.78;33.15;;;4.30;73.70;;;;;;5110090;28;20751;-78
2023/03/08 07:57:01;;;;;;;4.78;4.32;;;4.10;73.20;;;;;;5111799;28;20081;-76
2023/03/08 07:59:26;;;;;;;8.50;5.40;;;4.10;73.30;;;;;;5095680;28;20070;-76
2023/03/08 08:01:52;;;;;;;10.15;5.70;;;4.20;74.10;;;;;;5111763;28;20385;-80
2023/03/08 08:04:17;;;;;;;7.78;5.18;;;4.20;73.40;;;;;;5093031;28;20024;-76
2023/03/08 08:06:43;;;;;;;5.70;4.30;;;4.20;74.00;;;;;;5093280;28;20038;-78
2023/03/08 08:09:12;;;;;;;5.28;4.43;;;4.20;74.00;;;;;;5111244;28;20035;-76
2023/03/08 08:11:37;;;;;;;150.77;62.60;;;4.30;73.70;;;;;;5110229;28;20027;-78
2023/03/08 08:14:04;;;;;;;87.95;48.67;;;4.30;73.20;;;;;;5092797;28;20027;-77
2023/03/08 08:16:30;;;;;;;4.88;4.38;;;4.20;73.20;;;;;;5111407;28;20027;-78
2023/03/08 08:18:55;;;;;;;5.47;4.55;;;4.20;74.30;;;;;;5092736;28;20200;-78
2023/03/08 08:21:21;;;;;;;6.35;4.47;;;4.30;73.70;;;;;;5111204;28;20103;-80
2023/03/08 08:23:47;;;;;;;4.88;4.38;;;4.40;74.00;;;;;;5111258;28;20035;-79
2023/03/08 08:26:16;;;;;;;90.78;85.20;;;4.40;73.70;;;;;;5109587;28;20064;-79
2023/03/08 08:28:43;;;;;;;6.80;4.80;;;4.40;73.80;;;;;;5105935;28;20032;-77
2023/03/08 08:31:13;;;;;;;6.43;5.80;;;4.50;73.60;;;;;;5109878;28;20131;-78
2023/03/08 08:33:39;;;;;;;4.80;4.30;;;4.60;73.80;;;;;;5109679;28;20393;-80
2023/03/08 08:36:09;;;;;;;4.88;4.28;;;4.50;72.80;;;;;;5109362;28;20024;-77
2023/03/08 08:38:35;;;;;;;6.25;4.30;;;4.60;73.50;;;;;;5105158;28;20149;-77
2023/03/08 08:41:03;;;;;;;6.18;4.70;;;4.70;72.80;;;;;;5107374;28;20058;-78
2023/03/08 08:43:30;;;;;;;4.57;3.85;;;4.90;72.30;;;;;;5090388;28;20031;-78
2023/03/08 08:45:57;;;;;;;5.60;4.60;;;5.00;71.60;;;;;;5085782;28;20032;-79
2023/03/08 08:48:24;;;;;;;6.95;4.13;;;5.00;71.80;;;;;;5102626;28;20036;-78
2023/03/08 08:50:50;;;;;;;5.40;4.30;;;5.20;71.90;;;;;;5110716;28;20027;-78
2023/03/08 08:53:17;;;;;;;6.38;4.78;;;5.20;71.20;;;;;;5102570;28;20023;-78
2023/03/08 08:55:42;;;;;;;122.78;38.65;;;5.20;70.40;;;;;;5096041;28;20039;-78
2023/03/08 08:58:09;;;;;;;8.68;5.20;;;5.40;69.90;;;;;;5091670;28;20132;-79
2023/03/08 09:00:35;;;;;;;20.73;19.35;;;5.70;69.60;;;;;;5108550;28;20019;-77
2023/03/08 09:03:01;;;;;;;9.88;9.02;;;5.50;69.30;;;;;;5107410;28;20547;-81
2023/03/08 09:05:27;;;;;;;24.20;22.35;;;5.50;69.70;;;;;;5108861;28;20031;-81
2023/03/08 09:07:54;;;;;;;13.90;12.77;;;5.40;70.20;;;;;;5090400;28;20038;-78
2023/03/08 09:10:20;;;;;;;20.15;8.13;;;5.20;70.30;;;;;;5090794;28;20042;-78
2023/03/08 09:12:46;;;;;;;12.73;10.05;;;5.20;70.70;;;;;;5108115;28;20035;-78
2023/03/08 09:15:12;;;;;;;32.78;18.63;;;5.20;70.80;;;;;;5108329;28;20034;-79
2023/03/08 09:17:38;;;;;;;125.78;73.75;;;5.20;71.00;;;;;;5108932;28;20048;-78
2023/03/08 09:20:07;;;;;;;5.15;4.65;;;5.30;71.10;;;;;;5088314;28;20053;-78
2023/03/08 09:22:33;;;;;;;4.97;4.63;;;5.30;71.00;;;;;;5108583;28;20455;-78
2023/03/08 09:24:58;;;;;;;7.00;4.72;;;5.40;71.40;;;;;;5095146;28;20087;-77
2023/03/08 09:27:24;;;;;;;9.82;9.23;;;5.40;71.00;;;;;;5071587;28;20089;-79
2023/03/08 09:29:49;;;;;;;134.70;74.88;;;5.50;70.50;;;;;;5089494;28;20032;-78
2023/03/08 09:32:15;;;;;;;5.88;5.45;;;5.60;70.80;;;;;;5054047;28;20081;-76
2023/03/08 09:34:41;;;;;;;4.57;3.80;;;5.70;70.50;;;;;;5089348;28;20036;-79
2023/03/08 09:37:07;;;;;;;7.18;6.68;;;5.90;70.40;;;;;;5089685;28;20073;-78
2023/03/08 09:39:33;;;;;;;9.35;8.65;;;6.10;70.90;;;;;;5054834;28;20036;-77
2023/03/08 09:42:02;;;;;;;3.65;3.35;;;6.10;69.80;;;;;;5089288;28;20016;-78
2023/03/08 09:44:34;;;;;;;28.65;26.70;;;6.00;70.30;;;;;;5071148;28;20031;-77
2023/03/08 09:47:17;;;;;;;13.00;11.98;;;6.00;70.50;;;;;;5071583;28;20466;-78
2023/03/08 09:49:46;;;;;;;25.17;22.60;;;6.20;70.40;;;;;;5087204;28;20451;-78
2023/03/08 09:52:37;;;;;;;4.88;4.60;;;6.30;69.80;;;;;;5071284;28;20043;-78
2023/03/08 09:55:05;;;;;;;3.63;3.35;;;6.50;69.80;;;;;;5087275;28;20027;-77
2023/03/08 09:57:38;;;;;;;17.42;16.27;;;6.60;70.50;;;;;;5087342;28;20594;-77
2023/03/08 10:00:07;;;;;;;3.05;2.78;;;6.70;69.30;;;;;;5089677;28;20035;-78
2023/03/08 10:02:43;;;;;;;4.35;4.05;;;7.00;70.10;;;;;;5088573;28;20031;-78
2023/03/08 10:05:29;;;;;;;25.33;22.45;;;7.00;69.30;;;;;;5090388;28;20039;-77
2023/03/08 10:08:00;;;;;;;7.82;7.18;;;7.20;68.50;;;;;;5083434;28;20032;-77
2023/03/08 10:10:28;;;;;;;62.78;42.58;;;7.40;68.50;;;;;;5091251;28;20557;-78
2023/03/08 10:13:29;;;;;;;5.55;5.13;;;7.50;68.40;;;;;;5093769;28;20052;-77
2023/03/08 10:16:14;;;;;;;43.45;36.88;;;7.50;67.60;;;;;;5029129;28;20033;-76
2023/03/08 10:18:48;;;;;;;3.95;3.58;;;7.40;67.80;;;;;;5084276;28;20067;-76
2023/03/08 10:21:18;;;;;;;23.83;17.48;;;7.50;67.90;;;;;;5074206;28;20112;-78
2023/03/08 10:23:46;;;;;;;3.53;3.20;;;7.60;67.90;;;;;;5092060;28;20038;-77
2023/03/08 10:26:14;;;;;;;27.77;22.77;;;7.80;68.20;;;;;;5098311;28;20047;-78
2023/03/08 10:28:40;;;;;;;3.28;3.08;;;8.00;67.20;;;;;;5110225;27;20057;-77
2023/03/08 10:31:27;;;;;;;4.40;2.85;;;8.10;67.00;;;;;;5074835;28;20032;-79
2023/03/08 10:34:20;;;;;;;355.98;83.25;;;8.40;67.80;;;;;;5105257;28;20035;-78
2023/03/08 10:36:52;;;;;;;122.30;57.65;;;8.50;67.20;;;;;;5109983;28;20139;-78
2023/03/08 10:39:19;;;;;;;33.50;19.23;;;8.40;67.30;;;;;;5107770;28;20024;-79
2023/03/08 10:41:52;;;;;;;80.78;54.97;;;8.50;67.50;;;;;;5112995;28;20030;-77
2023/03/08 10:44:30;;;;;;;167.07;41.75;;;8.60;68.50;;;;;;5111867;28;20114;-77
2023/03/08 10:46:56;;;;;;;98.82;30.70;;;8.20;67.20;;;;;;5109381;28;20023;-76
2023/03/08 10:49:23;;;;;;;117.18;55.30;;;8.10;67.90;;;;;;5111403;28;20392;-77
2023/03/08 10:51:58;;;;;;;214.73;81.22;;;8.10;68.80;;;;;;5112480;28;20500;-76
2023/03/08 10:54:25;;;;;;;41.63;34.83;;;8.10;68.90;;;;;;5107378;28;20039;-79
2023/03/08 10:57:02;;;;;;;4.45;4.15;;;8.20;69.10;;;;;;5101750;28;20036;-78
2023/03/08 10:59:37;;;;;;;127.53;25.75;;;8.30;68.80;;;;;;5103142;28;20036;-76
2023/03/08 11:02:21;;;;;;;128.07;32.40;;;8.10;69.00;;;;;;5084574;28;20031;-77
2023/03/08 11:04:55;;;;;;;134.27;37.60;;;8.10;68.90;;;;;;5096910;28;20509;-79
2023/03/08 11:07:29;;;;;;;714.33;181.15;;;8.20;69.10;;;;;;5090706;27;20492;-78
2023/03/08 11:10:17;;;;;;;116.55;81.30;;;8.30;68.30;;;;;;5108499;28;20035;-76
2023/03/08 11:12:43;;;;;;;142.38;46.55;;;8.40;69.10;;;;;;5106222;28;20027;-75
2023/03/08 11:15:17;;;;;;;80.25;41.58;;;8.20;69.10;;;;;;5111029;28;20023;-75
2023/03/08 11:18:01;;;;;;;301.00;89.25;;;8.00;70.40;;;;;;5107913;28;20032;-78
2023/03/08 11:20:59;;;;;;;12.63;11.88;;;7.80;71.00;;;;;;5107705;28;20027;-76
2023/03/08 11:23:31;;;;;;;111.28;60.08;;;7.90;71.30;;;;;;5109330;28;20358;-76
2023/03/08 11:26:10;;;;;;;3.22;2.92;;;7.80;71.20;;;;;;5089821;28;20035;-76
2023/03/08 11:28:42;;;;;;;76.95;45.47;;;8.00;72.30;;;;;;5073197;28;20118;-76
2023/03/08 11:31:24;;;;;;;9.75;9.20;;;8.10;71.60;;;;;;5091302;28;20063;-77
2023/03/08 11:34:14;;;;;;;11.88;11.05;;;8.30;71.40;;;;;;5071394;28;20440;-76
2023/03/08 11:36:47;;;;;;;16.67;15.27;;;8.20;72.00;;;;;;5071499;28;20024;-76
2023/03/08 11:39:24;;;;;;;521.67;138.70;;;8.30;72.50;;;;;;5088241;28;20036;-77
2023/03/08 11:42:08;;;;;;;28.83;26.58;;;8.00;72.80;;;;;;5090183;28;21242;-76
2023/03/08 11:44:56;;;;;;;44.30;15.38;;;8.00;73.30;;;;;;5072679;28;20073;-77
2023/03/08 11:47:43;;;;;;;2.72;2.53;;;8.10;73.70;;;;;;5090746;28;20078;-77
2023/03/08 11:50:50;;;;;;;13.73;12.90;;;8.20;74.00;;;;;;5089062;28;20043;-76
2023/03/08 11:53:30;;;;;;;437.60;196.52;;;8.10;73.60;;;;;;4994501;28;20125;-76
2023/03/08 11:56:07;;;;;;;65.05;46.30;;;8.00;74.30;;;;;;5084244;28;20040;-77
2023/03/08 11:58:50;;;;;;;316.77;140.27;;;8.00;74.90;;;;;;5088628;28;20132;-75
2023/03/08 12:01:37;;;;;;;57.40;32.28;;;8.20;75.00;;;;;;5060489;28;20028;-77
2023/03/08 12:04:10;;;;;;;159.85;61.03;;;8.00;75.50;;;;;;5074644;28;20198;-78
2023/03/08 12:06:41;;;;;;;53.67;39.83;;;8.10;75.80;;;;;;5073814;28;20020;-76
2023/03/08 12:09:13;;;;;;;20.55;18.67;;;8.10;76.10;;;;;;5069287;28;20043;-77
2023/03/08 12:12:03;;;;;;;245.45;65.45;;;8.00;75.90;;;;;;5071045;28;20032;-76
2023/03/08 12:14:35;;;;;;;122.35;40.53;;;8.20;76.80;;;;;;5085246;28;20359;-75
2023/03/08 12:17:17;;;;;;;189.88;104.88;;;8.20;76.50;;;;;;5074203;28;20122;-76
2023/03/08 12:19:49;;;;;;;74.65;70.95;;;8.10;77.20;;;;;;5073831;28;20067;-76
2023/03/08 12:22:45;;;;;;;16.73;15.98;;;8.20;77.90;;;;;;5073268;28;20024;-77
2023/03/08 12:25:22;;;;;;;139.65;100.78;;;8.30;78.00;;;;;;5097322;28;20075;-77
2023/03/08 12:28:00;;;;;;;337.00;205.82;;;8.30;77.90;;;;;;5096366;28;20044;-76
2023/03/08 12:30:42;;;;;;;203.27;142.45;;;8.40;78.30;;;;;;5090911;28;20059;-74
2023/03/08 12:33:12;;;;;;;301.48;163.02;;;8.60;78.00;;;;;;5090850;28;20035;-76
2023/03/08 12:35:53;;;;;;;231.43;181.23;;;8.60;78.00;;;;;;5084837;28;20025;-76
2023/03/08 12:38:18;;;;;;;232.73;115.97;;;8.50;78.00;;;;;;5087081;28;20375;-74
2023/03/08 12:40:52;;;;;;;40.97;38.80;;;8.70;78.50;;;;;;5081786;28;20032;-76
2023/03/08 12:43:18;;;;;;;24.83;23.45;;;8.80;78.40;;;;;;5086887;28;20110;-76
2023/03/08 12:46:04;;;;;;;27.67;25.92;;;8.90;79.00;;;;;;5084131;28;20111;-76
2023/03/08 12:48:43;;;;;;;197.05;123.63;;;8.90;78.70;;;;;;5086895;28;20058;-76
2023/03/08 12:51:11;;;;;;;90.05;74.00;;;8.80;79.10;;;;;;5088865;28;20033;-76
2023/03/08 12:54:03;;;;;;;241.02;193.20;;;8.80;79.30;;;;;;5072377;28;20566;-76
2023/03/08 12:56:47;;;;;;;450.13;201.13;;;8.80;79.20;;;;;;5082267;28;20047;-76
2023/03/08 12:59:12;;;;;;;9.77;9.18;;;8.80;79.30;;;;;;5053745;28;20161;-75
2023/03/08 13:01:40;;;;;;;26.30;25.25;;;8.90;80.00;;;;;;5091308;28;20062;-76